Dobrodošli na spletni strani vremenske postaje Senovo. Vse informacije so informativnega značaja, saj vremenska postaja ni del državne mreže meteoroloških postaj. AKTUALNIH OBVESTIL NI.


Posebna pozornost v zvezi z vremenskimi dogajanji ni potrebna.    Posebna pozornost v zvezi z vremenskimi dogajanji ni potrebna.

Pogled proti Armezu več informacij Pogled proti Armezu


Bohor več informacij Bohor


Radar strel več informacij blitzortung!


Radar padavin več informacij rain snow radar


Obiščite še:

Template documentation
and downloads

And another site



Weather Underground, zgodovina - Tekstovno

Dnevni povzetek za Maj 15, 2017 Enote:  Metrično    Angleško   Obe
« Predhodni Dan
Naslednji Dan »
Dnevni Tedenski Mesečni Letni Po meri
  Višja: Nižja: Povprečje:
Temperatura: -17.8 °C -10.2 °C -9 °C
Točka rosišča: -17.8 °C -10.9 °C -10.2 °C
Vlažnost: Humidity % 68 % 87 %
Hitrost vetra: 0 km/h 0 km/h 2.7 km/h
Sunki vetra: 0 km/h - -
Veter:- - SSE
Zračni tlak: 0 hPa 34405.1 hPa -
Padavine: 0 mm    
Historical Graphs
 
 
Tabelarni podarki za Maj 15, 2017
Čas Temperatura Točka rosišča Zračni tlak Veter Hitrost vetra Sunki vetra Vlažnost Intenziteta padavin (urna)
-17.8 °C -17.8 °C 0 hPa Calm     Humidity % 0 mm
00:03 -9.5 °C -10.5 °C 34601.5 hPa SSW 4.2 km/h 10.3 km/h 89 % 0 mm
00:08 -9.6 °C -10.6 °C 34601.5 hPa South 3.4 km/h 8 km/h 89 % 0 mm
00:13 -9.6 °C -10.6 °C 34601.5 hPa South 2.6 km/h 8 km/h 89 % 0 mm
00:18 -9.6 °C -10.6 °C 34601.5 hPa South 1.8 km/h 5.1 km/h 89 % 0 mm
00:23 -9.6 °C -10.4 °C 34601.5 hPa SSE 2.9 km/h 6.9 km/h 90 % 0 mm
00:28 -9.6 °C -10.4 °C 34601.5 hPa SSE 2.6 km/h 6.9 km/h 90 % 0 mm
00:33 -9.6 °C -10.4 °C 34601.5 hPa ESE 0.8 km/h 5.1 km/h 90 % 0 mm
00:38 -9.6 °C -10.4 °C 34601.5 hPa Calm   3.4 km/h 90 % 0 mm
00:43 -9.6 °C -10.5 °C 34601.5 hPa Calm   3.4 km/h 90 % 0 mm
00:48 -9.6 °C -10.5 °C 34567.7 hPa Calm     90 % 0 mm
00:53 -9.6 °C -10.4 °C 34567.7 hPa Calm     91 % 0 mm
00:58 -9.6 °C -10.4 °C 34567.7 hPa Calm     91 % 0 mm
01:03 -9.6 °C -10.4 °C 34601.5 hPa ESE 0.5 km/h 5.1 km/h 91 % 0 mm
01:08 -9.6 °C -10.4 °C 34601.5 hPa ESE 0.5 km/h 5.1 km/h 91 % 0 mm
01:13 -9.6 °C -10.4 °C 34601.5 hPa WSW 2.1 km/h 9.3 km/h 91 % 7.62 mm
01:18 -9.6 °C -10.3 °C 34601.5 hPa WSW 5.6 km/h 12.7 km/h 92 % 7.62 mm
01:23 -9.6 °C -10.3 °C 34601.5 hPa SW 6.9 km/h 12.7 km/h 92 % 7.62 mm
01:28 -9.6 °C -10.3 °C 34601.5 hPa WSW 2.6 km/h 10.3 km/h 92 % 12.7 mm
01:33 -9.6 °C -10.3 °C 34635.4 hPa NE 0.8 km/h 5.6 km/h 92 % 12.7 mm
01:38 -9.6 °C -10.3 °C 34635.4 hPa NE 0.8 km/h 5.6 km/h 92 % 20.32 mm
01:43 -9.6 °C -10.3 °C 34635.4 hPa ESE 1.3 km/h 8 km/h 92 % 20.32 mm
01:48 -9.6 °C -10.3 °C 34601.5 hPa SE 5 km/h 9.3 km/h 92 % 20.32 mm
01:53 -9.6 °C -10.2 °C 34601.5 hPa SSE 6.9 km/h 12.7 km/h 93 % 20.32 mm
01:58 -9.6 °C -10.2 °C 34601.5 hPa SSW 4.7 km/h 12.7 km/h 93 % 20.32 mm
02:03 -9.6 °C -10.2 °C 34669.3 hPa NE 1.8 km/h 6.9 km/h 93 % 20.32 mm
02:08 -9.6 °C -10.2 °C 34669.3 hPa NE 1 km/h 6.9 km/h 93 % 20.32 mm
02:13 -9.6 °C -10.2 °C 34669.3 hPa NNE 0.8 km/h 5.1 km/h 93 % 12.7 mm
02:18 -9.6 °C -10.2 °C 34669.3 hPa ENE 0.5 km/h 5.1 km/h 93 % 12.7 mm
02:23 -9.6 °C -10.2 °C 34669.3 hPa Calm     93 % 7.62 mm
02:28 -9.6 °C -10.2 °C 34669.3 hPa Calm     93 % 7.62 mm
02:33 -9.6 °C -10.2 °C 34635.4 hPa Calm     94 % 7.62 mm
02:38 -9.6 °C -10.2 °C 34635.4 hPa SE 1.8 km/h 9.3 km/h 94 % 0 mm
02:43 -9.6 °C -10.1 °C 34635.4 hPa SE 3.1 km/h 9.3 km/h 94 % 0 mm
02:48 -9.6 °C -10.2 °C 34669.3 hPa SE 1.3 km/h 6.4 km/h 94 % 0 mm
02:53 -9.6 °C -10.2 °C 34669.3 hPa NW 1 km/h 6.4 km/h 94 % 0 mm
02:58 -9.6 °C -10.2 °C 34669.3 hPa NW 1 km/h 5.1 km/h 94 % 0 mm
03:03 -9.6 °C -10.2 °C 34669.3 hPa NW 0.3 km/h 2.9 km/h 94 % 0 mm
03:08 -9.6 °C -10.2 °C 34669.3 hPa NW 0.3 km/h 2.9 km/h 94 % 0 mm
03:13 -9.6 °C -10.2 °C 34669.3 hPa Calm     94 % 0 mm
03:18 -9.6 °C -10.2 °C 34669.3 hPa Calm     94 % 0 mm
03:23 -9.6 °C -10.2 °C 34669.3 hPa East 1.3 km/h 10.3 km/h 94 % 0 mm
03:28 -9.6 °C -10.1 °C 34669.3 hPa ENE 4.2 km/h 11.1 km/h 94 % 0 mm
03:33 -9.6 °C -10.1 °C 34669.3 hPa ENE 3.1 km/h 11.1 km/h 94 % 0 mm
03:38 -9.6 °C -10.1 °C 34669.3 hPa ENE 1.3 km/h 7.6 km/h 94 % 0 mm
03:43 -9.5 °C -10.1 °C 34669.3 hPa ESE 5.1 km/h 15.6 km/h 94 % 0 mm
03:48 -9.5 °C -10.1 °C 34669.3 hPa SE 7.6 km/h 15.6 km/h 94 % 0 mm
03:53 -9.5 °C -10.1 °C 34669.3 hPa SE 5 km/h 12.2 km/h 94 % 0 mm
03:58 -9.5 °C -10.1 °C 34669.3 hPa SE 2.1 km/h 5.6 km/h 94 % 0 mm
04:03 -9.5 °C -10.1 °C 34703.1 hPa ENE 1.3 km/h 8.9 km/h 94 % 0 mm
04:08 -9.5 °C -10.1 °C 34703.1 hPa NNE 2.1 km/h 8.9 km/h 94 % 0 mm
04:13 -9.6 °C -10.1 °C 34703.1 hPa NW 2.6 km/h 6.9 km/h 94 % 0 mm
04:18 -9.6 °C -10.1 °C 34669.3 hPa NW 3.4 km/h 9.8 km/h 94 % 0 mm
04:23 -9.6 °C -10.2 °C 34669.3 hPa NNE 6.4 km/h 22 km/h 93 % 0 mm
04:28 -9.6 °C -10.3 °C 34669.3 hPa NNE 7.7 km/h 22 km/h 92 % 0 mm
04:33 -9.6 °C -10.3 °C 34703.1 hPa North 6.8 km/h 20.9 km/h 92 % 0 mm
04:38 -9.6 °C -10.3 °C 34703.1 hPa NNW 5 km/h 14 km/h 92 % 0 mm
04:43 -9.6 °C -10.3 °C 34703.1 hPa North 2.9 km/h 8.9 km/h 92 % 0 mm
04:48 -9.7 °C -10.4 °C 34635.4 hPa WNW 2.9 km/h 12.2 km/h 92 % 0 mm
04:53 -9.7 °C -10.4 °C 34635.4 hPa West 5.6 km/h 12.2 km/h 92 % 0 mm
04:58 -9.8 °C -10.4 °C 34635.4 hPa West 4.7 km/h 10.3 km/h 93 % 0 mm
05:03 -9.8 °C -10.4 °C 34669.3 hPa West 1.6 km/h 6.9 km/h 93 % 0 mm
05:08 -9.8 °C -10.4 °C 34669.3 hPa SSE 2.1 km/h 7.6 km/h 93 % 0 mm
05:13 -9.8 °C -10.4 °C 34669.3 hPa ESE 2.3 km/h 7.6 km/h 93 % 0 mm
05:18 -9.8 °C -10.4 °C 34635.4 hPa NE 2.1 km/h 6.9 km/h 94 % 0 mm
05:23 -9.8 °C -10.4 °C 34635.4 hPa NE 2.1 km/h 6.9 km/h 94 % 0 mm
05:28 -9.9 °C -10.4 °C 34635.4 hPa NE 2.3 km/h 10.3 km/h 94 % 0 mm
05:33 -9.9 °C -10.4 °C 34669.3 hPa ENE 3.7 km/h 10.3 km/h 94 % 0 mm
05:38 -9.8 °C -10.4 °C 34669.3 hPa ENE 3.1 km/h 8.9 km/h 94 % 0 mm
05:43 -9.8 °C -10.4 °C 34669.3 hPa East 0.8 km/h 6.4 km/h 94 % 0 mm
05:48 -9.9 °C -10.4 °C 34703.1 hPa SSE 1 km/h 6.9 km/h 94 % 0 mm
05:53 -9.8 °C -10.4 °C 34703.1 hPa SSW 2.3 km/h 8.9 km/h 94 % 0 mm
05:58 -9.9 °C -10.4 °C 34703.1 hPa SW 4.7 km/h 11.1 km/h 94 % 0 mm
06:03 -9.9 °C -10.4 °C 34635.4 hPa SSW 6.3 km/h 11.1 km/h 94 % 0 mm
06:08 -9.9 °C -10.4 °C 34635.4 hPa South 5 km/h 11.1 km/h 94 % 0 mm
06:13 -9.9 °C -10.4 °C 34635.4 hPa South 4.7 km/h 12.7 km/h 94 % 0 mm
06:16 -9.8 °C -10.4 °C 34405.1 hPa SSW 6.8 km/h 8.9 km/h 94 % 0 mm
06:17 -9.8 °C -10.4 °C 34635.4 hPa SSW 6.9 km/h 11.1 km/h 94 % 0 mm
06:18 -9.8 °C -10.4 °C 34635.4 hPa SSW 7.2 km/h 11.1 km/h 94 % 0 mm
06:19 -9.8 °C -10.4 °C 34635.4 hPa SSW 8 km/h 11.1 km/h 94 % 0 mm
06:20 -9.8 °C -10.4 °C 34635.4 hPa SSW 8.9 km/h 11.1 km/h 94 % 0 mm
06:21 -9.8 °C -10.4 °C 34635.4 hPa SSW 8.5 km/h 11.1 km/h 94 % 0 mm
06:22 -9.8 °C -10.4 °C 34635.4 hPa SSW 8.2 km/h 11.1 km/h 94 % 0 mm
06:23 -9.8 °C -10.4 °C 34635.4 hPa SSW 8.2 km/h 11.1 km/h 94 % 0 mm
06:33 -9.8 °C -10.4 °C 34635.4 hPa SSW 8 km/h 11.1 km/h 94 % 0 mm
06:38 -9.8 °C -10.4 °C 34740.4 hPa WSW 8.2 km/h 11.1 km/h 94 % 0 mm
06:43 -9.8 °C -10.3 °C 34740.4 hPa West 6.3 km/h 11.1 km/h 94 % 0 mm
06:48 -9.8 °C -10.3 °C 34669.3 hPa West 4.7 km/h 9.8 km/h 94 % 0 mm
06:53 -9.8 °C -10.3 °C 34669.3 hPa West 3.4 km/h 9.8 km/h 94 % 0 mm
06:58 -9.7 °C -10.2 °C 34669.3 hPa WSW 2.3 km/h 8.9 km/h 94 % 0 mm
07:03 -9.7 °C -10.2 °C 34703.1 hPa WSW 2.1 km/h 8.9 km/h 94 % 0 mm
07:08 -9.7 °C -10.2 °C 34703.1 hPa WSW 2.6 km/h 6.9 km/h 94 % 0 mm
07:13 -9.6 °C -10.1 °C 34703.1 hPa North 0.3 km/h   94 % 0 mm
07:18 -9.5 °C -10.1 °C 34703.1 hPa West 0.8 km/h 5.6 km/h 94 % 0 mm
07:20 -9.5 °C -10.1 °C 34703.1 hPa West 0.8 km/h 5.6 km/h 94 % 0 mm
07:25 -9.4 °C -9.9 °C 34703.1 hPa WSW 1.3 km/h 5.6 km/h 94 % 0 mm
07:30 -9.4 °C -9.9 °C 34703.1 hPa SW 0.8 km/h 4.2 km/h 94 % 0 mm
07:35 -9.3 °C -9.9 °C 34703.1 hPa WSW 0.8 km/h 3.4 km/h 94 % 0 mm
07:40 -9.3 °C -9.8 °C 34703.1 hPa WNW 0.5 km/h 3.4 km/h 94 % 0 mm
07:45 -9.3 °C -9.9 °C 34740.4 hPa WNW 0.3 km/h 2.9 km/h 93 % 0 mm
07:50 -9.3 °C -9.9 °C 34740.4 hPa Calm     93 % 0 mm
07:55 -9.2 °C -9.8 °C 34740.4 hPa Calm     93 % 0 mm
08:00 -9.2 °C -9.8 °C 34740.4 hPa Calm     93 % 0 mm
08:05 -9.2 °C -9.8 °C 34740.4 hPa Calm     93 % 0 mm
08:08 -9.2 °C -9.8 °C 34740.4 hPa Calm     93 % 0 mm
08:13 -9.2 °C -9.8 °C 34740.4 hPa Calm     93 % 0 mm
08:18 -9.2 °C -9.8 °C 34740.4 hPa Calm     93 % 0 mm
08:23 -9.1 °C -9.8 °C 34740.4 hPa Calm     93 % 0 mm
08:28 -9.1 °C -9.8 °C 34740.4 hPa Calm     93 % 0 mm
08:33 -9.1 °C -9.8 °C 34740.4 hPa Calm     93 % 0 mm
08:38 -9.1 °C -9.8 °C 34740.4 hPa Calm     92 % 0 mm
08:43 -9.1 °C -9.8 °C 34740.4 hPa Calm     92 % 0 mm
08:48 -9 °C -9.7 °C 34740.4 hPa ESE 1 km/h 6.4 km/h 92 % 0 mm
08:53 -8.9 °C -9.7 °C 34740.4 hPa ESE 1 km/h 6.4 km/h 92 % 0 mm
08:58 -8.8 °C -9.6 °C 34740.4 hPa ESE 1.3 km/h 7.6 km/h 92 % 0 mm
09:03 -8.8 °C -9.5 °C 34740.4 hPa SE 4.3 km/h 8 km/h 92 % 0 mm
09:08 -8.8 °C -9.5 °C 34740.4 hPa ESE 3.9 km/h 8 km/h 92 % 0 mm
09:13 -8.7 °C -9.4 °C 34740.4 hPa ESE 1.8 km/h 4.2 km/h 92 % 0 mm
09:18 -8.7 °C -9.4 °C 34703.1 hPa ESE 3.1 km/h 6.9 km/h 92 % 0 mm
09:23 -8.7 °C -9.4 °C 34703.1 hPa SE 1.6 km/h 6.9 km/h 92 % 0 mm
09:28 -8.6 °C -9.4 °C 34703.1 hPa SW 0.5 km/h 4.2 km/h 91 % 0 mm
09:33 -8.6 °C -9.4 °C 34740.4 hPa SSE 0.8 km/h 6.4 km/h 91 % 0 mm
09:38 -8.6 °C -9.6 °C 34740.4 hPa ESE 0.3 km/h 6.4 km/h 90 % 0 mm
09:43 -8.6 °C -9.6 °C 34740.4 hPa SSE 2.6 km/h 11.1 km/h 90 % 0 mm
09:48 -8.6 °C -9.5 °C 34740.4 hPa SE 6.3 km/h 11.1 km/h 90 % 0 mm
09:53 -8.6 °C -9.5 °C 34740.4 hPa SE 6.9 km/h 11.1 km/h 90 % 0 mm
09:58 -8.5 °C -9.4 °C 34740.4 hPa SE 7.2 km/h 11.1 km/h 90 % 7.62 mm
10:03 -8.5 °C -9.5 °C 34740.4 hPa South 4.7 km/h 7.6 km/h 89 % 7.62 mm
10:08 -8.5 °C -9.5 °C 34740.4 hPa South 4.3 km/h 9.3 km/h 89 % 7.62 mm
10:13 -8.5 °C -9.6 °C 34740.4 hPa SE 3.7 km/h 9.3 km/h 88 % 7.62 mm
10:18 -8.5 °C -9.7 °C 34774.2 hPa East 3.7 km/h 8.9 km/h 87 % 7.62 mm
10:23 -8.5 °C -9.7 °C 34774.2 hPa ENE 3.7 km/h 7.6 km/h 87 % 7.62 mm
10:28 -8.6 °C -9.8 °C 34774.2 hPa East 2.3 km/h 7.6 km/h 87 % 7.62 mm
10:33 -8.6 °C -9.9 °C 34774.2 hPa ENE 2.1 km/h 7.6 km/h 86 % 7.62 mm
10:38 -8.6 °C -9.8 °C 34774.2 hPa South 2.6 km/h 7.6 km/h 87 % 7.62 mm
10:43 -8.6 °C -9.8 °C 34774.2 hPa South 2.3 km/h 7.6 km/h 87 % 7.62 mm
10:48 -8.6 °C -9.8 °C 34774.2 hPa South 3.4 km/h 6.4 km/h 87 % 7.62 mm
10:53 -8.7 °C -9.9 °C 34774.2 hPa South 3.7 km/h 6.9 km/h 87 % 7.62 mm
10:58 -8.7 °C -9.9 °C 34774.2 hPa SSW 3.7 km/h 6.9 km/h 87 % 0 mm
11:03 -8.7 °C -9.9 °C 34774.2 hPa South 6.4 km/h 10.3 km/h 87 % 0 mm
11:08 -8.7 °C -9.9 °C 34774.2 hPa South 4.3 km/h 10.3 km/h 87 % 0 mm
11:13 -8.7 °C -9.9 °C 34774.2 hPa SSW 3.7 km/h 8.9 km/h 87 % 0 mm
11:18 -8.7 °C -9.8 °C 34774.2 hPa SSW 4.3 km/h 7.6 km/h 88 % 0 mm
11:23 -8.7 °C -9.8 °C 34774.2 hPa SSW 5.6 km/h 6.9 km/h 88 % 0 mm
11:28 -8.7 °C -9.8 °C 34774.2 hPa SSW 5.5 km/h 6.9 km/h 88 % 0 mm
11:33 -8.7 °C -9.8 °C 34774.2 hPa SSW 1.8 km/h 6.4 km/h 88 % 0 mm
11:38 -8.7 °C -9.8 °C 34774.2 hPa SSW 2.3 km/h 6.9 km/h 88 % 0 mm
11:43 -8.7 °C -9.7 °C 34774.2 hPa SSW 3.1 km/h 6.9 km/h 89 % 0 mm
11:48 -8.7 °C -9.7 °C 34808.1 hPa SW 2.3 km/h 8 km/h 89 % 0 mm
11:53 -8.7 °C -9.7 °C 34808.1 hPa SW 4.2 km/h 8 km/h 89 % 0 mm
11:58 -8.8 °C -9.8 °C 34808.1 hPa SW 4.7 km/h 8 km/h 89 % 0 mm
12:03 -8.8 °C -9.7 °C 34808.1 hPa SSW 6 km/h 8.9 km/h 90 % 0 mm
12:08 -8.8 °C -9.7 °C 34808.1 hPa SSW 5.1 km/h 8.9 km/h 90 % 0 mm
12:13 -8.8 °C -9.7 °C 34808.1 hPa SSW 4.3 km/h 6.9 km/h 90 % 0 mm
12:18 -8.8 °C -9.7 °C 34808.1 hPa SW 2.9 km/h 6.4 km/h 90 % 0 mm
12:23 -8.7 °C -9.6 °C 34808.1 hPa SSW 1.6 km/h 5.6 km/h 90 % 0 mm
12:28 -8.7 °C -9.6 °C 34808.1 hPa SW 3.4 km/h 8 km/h 90 % 0 mm
12:33 -8.7 °C -9.6 °C 34808.1 hPa SSE 4.2 km/h 12.7 km/h 90 % 0 mm
12:38 -8.6 °C -9.6 °C 34808.1 hPa SE 3.4 km/h 12.7 km/h 89 % 0 mm
12:43 -8.6 °C -9.7 °C 34808.1 hPa SE 2.3 km/h 8 km/h 88 % 0 mm
12:48 -8.5 °C -9.7 °C 34808.1 hPa ESE 2.9 km/h 8 km/h 87 % 0 mm
12:53 -8.4 °C -9.8 °C 34808.1 hPa East 2.6 km/h 8 km/h 86 % 0 mm
12:54 -8.4 °C -9.8 °C 34808.1 hPa East 2.3 km/h 6.9 km/h 86 % 0 mm
12:59 -8.4 °C -9.7 °C 34808.1 hPa ENE 0.8 km/h 5.1 km/h 86 % 0 mm
13:04 -8.3 °C -9.8 °C 34808.1 hPa West 1 km/h 5.1 km/h 85 % 0 mm
13:09 -8.2 °C -9.8 °C 34808.1 hPa North 1.3 km/h 12.2 km/h 84 % 0 mm
13:14 -8.1 °C -9.7 °C 34808.1 hPa ENE 3.4 km/h 12.2 km/h 83 % 0 mm
13:19 -7.9 °C -9.6 °C 34808.1 hPa East 5.1 km/h 12.2 km/h 82 % 0 mm
13:24 -7.8 °C -9.7 °C 34808.1 hPa ESE 3.4 km/h 9.3 km/h 81 % 0 mm
13:29 -7.7 °C -9.6 °C 34808.1 hPa South 2.9 km/h 8.9 km/h 81 % 0 mm
13:30 -7.7 °C -9.5 °C 34808.1 hPa SE 4.2 km/h 11.1 km/h 81 % 0 mm
13:35 -7.6 °C -9.5 °C 34808.1 hPa NE 6.3 km/h 12.7 km/h 80 % 0 mm
13:40 -7.4 °C -9.4 °C 34808.1 hPa NE 6.8 km/h 12.7 km/h 79 % 0 mm
13:45 -7.3 °C -9.4 °C 34808.1 hPa ESE 6.8 km/h 14 km/h 79 % 0 mm
13:50 -7.3 °C -9.7 °C 34808.1 hPa ESE 7.2 km/h 15 km/h 76 % 0 mm
13:56 -7.4 °C -9.8 °C 34808.1 hPa East 6.8 km/h 15 km/h 76 % 0 mm
14:01 -7.3 °C -9.7 °C 34808.1 hPa ESE 4.3 km/h 9.8 km/h 76 % 0 mm
14:05 -7.2 °C -9.8 °C 34808.1 hPa East 2.3 km/h 8.9 km/h 75 % 0 mm
14:11 -7.2 °C -9.9 °C 34808.1 hPa ENE 5.1 km/h 14 km/h 73 % 0 mm
14:16 -7.2 °C -9.8 °C 34774.2 hPa NE 6.8 km/h 14 km/h 74 % 0 mm
14:21 -7.2 °C -9.8 °C 34774.2 hPa NNE 3.7 km/h 6.4 km/h 74 % 0 mm
14:26 -7.2 °C -10.1 °C 34774.2 hPa ENE 3.4 km/h 7.6 km/h 72 % 0 mm
14:31 -7.3 °C -10.2 °C 34774.2 hPa ENE 5 km/h 12.7 km/h 72 % 7.62 mm
14:36 -7.4 °C -10.6 °C 34774.2 hPa North 6 km/h 12.7 km/h 70 % 7.62 mm
14:41 -7.5 °C -10.4 °C 34774.2 hPa NW 8.9 km/h 12.7 km/h 71 % 7.62 mm
14:46 -7.6 °C -10.7 °C 34774.2 hPa WNW 12.2 km/h 12.2 km/h 70 % 7.62 mm
14:51 -7.5 °C -10.6 °C 34774.2 hPa NW 10.9 km/h 12.7 km/h 70 % 7.62 mm
14:56 -7.4 °C -10.4 °C 34774.2 hPa NNE 8.9 km/h 12.7 km/h 71 % 7.62 mm
15:01 -7.4 °C -10.6 °C 34774.2 hPa ENE 6.8 km/h 20.3 km/h 70 % 7.62 mm
15:06 -7.3 °C -10.4 °C 34774.2 hPa East 6.9 km/h 20.3 km/h 70 % 7.62 mm
15:11 -7.2 °C -10.3 °C 34774.2 hPa ESE 6.9 km/h 14 km/h 70 % 7.62 mm
15:16 -7.1 °C -10.4 °C 34774.2 hPa ESE 7.2 km/h 14 km/h 68 % 7.62 mm
15:21 -7.2 °C -10.4 °C 34774.2 hPa ENE 9.3 km/h 19.2 km/h 69 % 7.62 mm
15:26 -7.2 °C -10.4 °C 34774.2 hPa NE 13.5 km/h 19.2 km/h 69 % 0 mm
15:31 -7.2 °C -10.5 °C 34740.4 hPa NE 13.5 km/h 19.2 km/h 68 % 0 mm
15:36 -7.3 °C -10.5 °C 34740.4 hPa NE 11.4 km/h 19.2 km/h 69 % 0 mm
15:41 -7.4 °C -10.7 °C 34740.4 hPa NE 9.8 km/h 9.8 km/h 68 % 0 mm
15:46 -7.4 °C -10.7 °C 34740.4 hPa NE 10.9 km/h 10.9 km/h 69 % 0 mm
15:51 -7.6 °C -10.8 °C 34740.4 hPa NE 7.7 km/h 7.7 km/h 69 % 0 mm
15:56 -7.7 °C -10.8 °C 34740.4 hPa North 3.9 km/h 5.1 km/h 70 % 0 mm
16:01 -7.7 °C -10.9 °C 34740.4 hPa ENE 3.1 km/h 6.9 km/h 69 % 0 mm
16:06 -7.7 °C -10.8 °C 34740.4 hPa NNE 2.9 km/h 8 km/h 70 % 0 mm
16:11 -7.7 °C -10.9 °C 34740.4 hPa NNW 3.7 km/h 8 km/h 69 % 0 mm
16:16 -7.8 °C -10.9 °C 34703.1 hPa NW 4.7 km/h 8.9 km/h 70 % 0 mm
16:21 -7.8 °C -10.9 °C 34703.1 hPa NW 3.1 km/h 8.9 km/h 70 % 0 mm
16:26 -7.8 °C -10.8 °C 34703.1 hPa East 2.6 km/h 8.9 km/h 71 % 0 mm
16:31 -7.8 °C -10.8 °C 34740.4 hPa East 3.7 km/h 16.3 km/h 71 % 0 mm
16:36 -7.8 °C -10.8 °C 34740.4 hPa East 4.7 km/h 16.3 km/h 71 % 0 mm
16:41 -7.8 °C -10.8 °C 34740.4 hPa ENE 3.9 km/h 16.3 km/h 71 % 0 mm
16:46 -7.9 °C -10.9 °C 34703.1 hPa NE 2.3 km/h 8 km/h 71 % 0 mm
16:51 -7.8 °C -10.7 °C 34703.1 hPa SSE 2.1 km/h 6.4 km/h 72 % 0 mm
16:56 -7.8 °C -10.7 °C 34703.1 hPa SSE 2.3 km/h 6.9 km/h 72 % 0 mm
17:01 -7.8 °C -10.6 °C 34774.2 hPa South 3.1 km/h 6.9 km/h 72 % 0 mm
17:06 -7.7 °C -10.6 °C 34774.2 hPa SSW 2.1 km/h 6.4 km/h 72 % 0 mm
17:11 -7.7 °C -10.5 °C 34774.2 hPa SSW 1.8 km/h 6.9 km/h 72 % 0 mm
17:16 -7.7 °C -10.4 °C 34774.2 hPa SSW 2.3 km/h 7.6 km/h 73 % 0 mm
17:21 -7.7 °C -10.3 °C 34774.2 hPa South 3.1 km/h 10.3 km/h 74 % 0 mm
17:26 -7.7 °C -10.3 °C 34774.2 hPa SSE 5 km/h 10.3 km/h 74 % 0 mm
17:31 -7.7 °C -10.4 °C 34740.4 hPa SSE 3.7 km/h 10.3 km/h 73 % 7.62 mm
17:32 -7.7 °C -10.3 °C 34740.4 hPa SSE 2.6 km/h 6.9 km/h 74 % 7.62 mm
17:38 -7.8 °C -10.4 °C 34740.4 hPa SSW 1.3 km/h 5.1 km/h 74 % 7.62 mm
17:43 -7.8 °C -10.4 °C 34740.4 hPa South 1 km/h 4.2 km/h 74 % 7.62 mm
17:48 -7.8 °C -10.3 °C 34740.4 hPa South 2.3 km/h 2.3 km/h 75 % 7.62 mm
17:53 -7.9 °C -10.3 °C 34740.4 hPa SSE 1.8 km/h 3.4 km/h 76 % 7.62 mm
17:58 -7.9 °C -10.2 °C 34740.4 hPa South 1.3 km/h 5.1 km/h 77 % 7.62 mm
18:03 -8.1 °C -10.2 °C 34703.1 hPa South 1.6 km/h 5.1 km/h 78 % 7.62 mm
18:08 -8.1 °C -10.2 °C 34703.1 hPa SSW 1.8 km/h 5.1 km/h 78 % 7.62 mm
18:13 -8.2 °C -10.1 °C 34703.1 hPa Calm     80 % 7.62 mm
18:18 -8.2 °C -10 °C 34740.4 hPa Calm     81 % 7.62 mm
18:23 -8.2 °C -10.2 °C 34740.4 hPa Calm     80 % 7.62 mm
18:28 -8.3 °C -10.2 °C 34740.4 hPa Calm     81 % 7.62 mm
18:33 -8.4 °C -10.1 °C 34703.1 hPa Calm     82 % 0 mm
18:38 -8.4 °C -10.1 °C 34703.1 hPa Calm     83 % 0 mm
18:43 -8.5 °C -10.1 °C 34703.1 hPa NNW 1.3 km/h 5.1 km/h 83 % 0 mm
18:48 -8.5 °C -10.1 °C 34740.4 hPa NW 1.3 km/h 5.1 km/h 83 % 0 mm
18:53 -8.6 °C -10.1 °C 34740.4 hPa WNW 0.3 km/h 4.2 km/h 84 % 0 mm
18:58 -8.6 °C -10.1 °C 34740.4 hPa ENE 0.3 km/h 6.4 km/h 84 % 0 mm
19:03 -8.6 °C -10.1 °C 34703.1 hPa ENE 0.5 km/h 6.4 km/h 85 % 0 mm
19:08 -8.7 °C -10.1 °C 34703.1 hPa North 1 km/h 4.2 km/h 85 % 0 mm
19:13 -8.7 °C -10.1 °C 34703.1 hPa West 1.3 km/h 5.1 km/h 86 % 0 mm
19:18 -8.7 °C -10.1 °C 34703.1 hPa WSW 0.8 km/h 5.6 km/h 86 % 0 mm
19:23 -8.8 °C -9.9 °C 34703.1 hPa WNW 0.3 km/h 5.6 km/h 87 % 0 mm
19:28 -8.8 °C -9.9 °C 34703.1 hPa NNE 0.3 km/h 2.3 km/h 87 % 0 mm
19:33 -8.8 °C -10.1 °C 34740.4 hPa SW 0.5 km/h 7.6 km/h 87 % 0 mm
19:38 -8.9 °C -10 °C 34740.4 hPa WSW 3.1 km/h 7.6 km/h 88 % 0 mm
19:43 -8.9 °C -10 °C 34740.4 hPa WSW 2.3 km/h 7.6 km/h 88 % 0 mm
19:48 -8.9 °C -9.9 °C 34740.4 hPa Calm     89 % 0 mm
19:53 -8.9 °C -9.9 °C 34740.4 hPa Calm     89 % 0 mm
19:58 -9 °C -10 °C 34740.4 hPa Calm     89 % 0 mm
20:03 -9.1 °C -9.9 °C 34740.4 hPa NW 0.3 km/h 3.4 km/h 90 % 0 mm
20:08 -9.1 °C -10.1 °C 34740.4 hPa NW 0.3 km/h 3.4 km/h 90 % 0 mm
20:13 -9.1 °C -10.1 °C 34740.4 hPa Calm     90 % 0 mm
20:18 -9.2 °C -10.1 °C 34740.4 hPa Calm     90 % 0 mm
20:23 -9.2 °C -10.1 °C 34740.4 hPa Calm   2.9 km/h 90 % 0 mm
20:27 -9.2 °C -10.1 °C 34740.4 hPa NW 0.3 km/h 6.4 km/h 90 % 0 mm
20:32 -9.3 °C -10.2 °C 34740.4 hPa NW 0.3 km/h 6.4 km/h 90 % 0 mm
20:37 -9.3 °C -10.2 °C 34740.4 hPa Calm     90 % 0 mm
20:42 -9.3 °C -10.2 °C 34740.4 hPa Calm   5.6 km/h 91 % 0 mm
20:47 -9.4 °C -10.3 °C 34740.4 hPa NW 0.3 km/h 5.6 km/h 90 % 0 mm
20:52 -9.4 °C -10.2 °C 34740.4 hPa NW 0.5 km/h 5.6 km/h 91 % 0 mm
20:57 -9.5 °C -10.3 °C 34740.4 hPa Calm     91 % 0 mm
21:02 -9.5 °C -10.3 °C 34774.2 hPa Calm     91 % 0 mm
21:07 -9.6 °C -10.4 °C 34774.2 hPa Calm     91 % 0 mm
21:12 -9.6 °C -10.4 °C 34774.2 hPa Calm     91 % 0 mm
21:17 -9.6 °C -10.3 °C 34774.2 hPa Calm     92 % 0 mm
21:22 -9.7 °C -10.4 °C 34774.2 hPa Calm     92 % 0 mm
21:27 -9.7 °C -10.4 °C 34774.2 hPa Calm     92 % 0 mm
21:32 -9.7 °C -10.4 °C 34808.1 hPa Calm     92 % 0 mm
21:37 -9.7 °C -10.4 °C 34808.1 hPa Calm     92 % 0 mm
21:42 -9.8 °C -10.5 °C 34808.1 hPa Calm     92 % 0 mm
21:47 -9.8 °C -10.5 °C 34808.1 hPa WNW 0.8 km/h 4.2 km/h 92 % 0 mm
21:52 -9.8 °C -10.5 °C 34808.1 hPa WNW 0.8 km/h 4.2 km/h 92 % 0 mm
21:57 -9.8 °C -10.6 °C 34808.1 hPa Calm     92 % 0 mm
22:02 -9.8 °C -10.4 °C 34808.1 hPa Calm     93 % 0 mm
22:07 -9.9 °C -10.5 °C 34808.1 hPa Calm     93 % 0 mm
22:12 -9.9 °C -10.5 °C 34808.1 hPa Calm     93 % 0 mm
22:17 -9.9 °C -10.5 °C 34808.1 hPa Calm     93 % 0 mm
22:22 -9.9 °C -10.5 °C 34808.1 hPa Calm   6.4 km/h 93 % 0 mm
22:27 -9.9 °C -10.6 °C 34808.1 hPa NW 1.6 km/h 6.4 km/h 93 % 0 mm
22:32 -9.9 °C -10.6 °C 34808.1 hPa WNW 1.3 km/h 6.4 km/h 93 % 0 mm
22:37 -9.9 °C -10.6 °C 34808.1 hPa Calm   2.3 km/h 93 % 0 mm
22:42 -10 °C -10.6 °C 34808.1 hPa Calm     93 % 0 mm
22:47 -10 °C -10.6 °C 34808.1 hPa Calm     93 % 0 mm
22:52 -10 °C -10.6 °C 34808.1 hPa Calm     93 % 0 mm
22:57 -10 °C -10.6 °C 34808.1 hPa Calm     93 % 0 mm
22:58 -10 °C -10.6 °C 34808.1 hPa Calm     93 % 0 mm
23:03 -10.1 °C -10.6 °C 34808.1 hPa Calm     94 % 0 mm
23:08 -10.1 °C -10.6 °C 34808.1 hPa Calm     94 % 0 mm
23:13 -10.1 °C -10.6 °C 34841.9 hPa Calm     94 % 0 mm
23:18 -10.1 °C -10.6 °C 34841.9 hPa Calm     94 % 0 mm
23:23 -10.1 °C -10.7 °C 34841.9 hPa Calm     94 % 0 mm
23:28 -10.1 °C -10.7 °C 34808.1 hPa Calm     94 % 0 mm
23:33 -10.1 °C -10.7 °C 34808.1 hPa Calm     94 % 0 mm
23:38 -10.1 °C -10.7 °C 34808.1 hPa Calm     94 % 0 mm
23:43 -10.2 °C -10.7 °C 34841.9 hPa Calm     94 % 0 mm
23:48 -10.2 °C -10.7 °C 34841.9 hPa Calm     94 % 0 mm
23:53 -10.2 °C -10.7 °C 34841.9 hPa Calm     94 % 0 mm
23:58 -10.2 °C -10.7 °C 34808.1 hPa Calm     94 % 0 mm
Vremenska postaja Senovo
Podatki zbrani iz Weather Underground - 3 mb

Script developed by  Jim McMurry - jmcmurry@mwt.net Adapted for the template by  Wim van der Kuil - Leuven-Template.eu

Vremenski podatki so objavljeni na:

European Weather Network

WeatherCloud

Weather Underground

AWEKAS

HAMweather, WeatherForYou, PWS Weather

MapView

Geostik

Slovenia weather network

Oprema, ki se uporablja:

Vremenski program
Cumulus

Vremenski server
Asus

Cumulus

Asus